Big Bear Station Historical Data
Daily Summary for March 6, 2017 Units:  English    Metric   Both
Next Day »
Daily Weekly Monthly Yearly Custom
  High: Low: Average:
Temperature: 45.1 °F 16.2 °F 30.3 °F
Dew Point: 25.6 °F 5.8 °F 16 °F
Humidity: 90% 21% 59%
Wind Speed: 6.8mph 0.0mph 1.8mph
Wind Gust: -999.0mph - -
Wind- - WSW
Pressure: 30.19 in 30.00 in -
Precipitation: 0.42 in    
Historical Graphs
 
 
Tabular Data for March 6, 2017
Time Temperature Dew Point Pressure Wind Wind Speed Wind Gust Humidity Rainfall Rate (Hourly)
00:04 21.9 °F 19.4 °F 30.00 in NW 4.2 mph -999.0 mph 90% 0 in
00:19 21.7 °F 16.8 °F 30.00 in SSW 1.1 mph -999.0 mph 81% 0 in
00:35 21.6 °F 15.5 °F 30.00 in Calm   -999.0 mph 77% 0 in
00:50 21.4 °F 14.7 °F 30.00 in NNW 2.7 mph -999.0 mph 75% 0 in
01:06 21.9 °F 13.0 °F 30.00 in NNW 2.7 mph -999.0 mph 68% 0 in
01:21 21.0 °F 14.6 °F 30.01 in Calm   -999.0 mph 76% 0 in
01:36 20.5 °F 14.1 °F 30.01 in Calm   -999.0 mph 76% 0 in
01:51 20.3 °F 14.2 °F 30.01 in South 2.7 mph -999.0 mph 77% 0 in
02:06 19.9 °F 13.9 °F 30.02 in Calm   -999.0 mph 77% 0 in
02:22 19.8 °F 13.8 °F 30.01 in SSW 2.2 mph -999.0 mph 77% 0 in
02:37 19.8 °F 12.9 °F 30.00 in Calm   -999.0 mph 74% 0 in
02:52 18.7 °F 13.8 °F 30.01 in Calm   -999.0 mph 81% 0 in
03:07 18.1 °F 13.3 °F 30.01 in Calm   -999.0 mph 81% 0 in
03:23 17.6 °F 13.0 °F 30.02 in Calm   -999.0 mph 82% 0 in
03:38 17.6 °F 13.3 °F 30.02 in South 1.7 mph -999.0 mph 83% 0 in
03:53 17.2 °F 13.5 °F 30.02 in South 1.1 mph -999.0 mph 85% 0 in
04:08 16.9 °F 13.2 °F 30.03 in SSW 2.2 mph -999.0 mph 85% 0 in
04:23 16.5 °F 12.5 °F 30.03 in South 2.7 mph -999.0 mph 84% 0 in
04:39 16.5 °F 12.5 °F 30.03 in Calm   -999.0 mph 84% 0 in
04:54 16.2 °F 12.5 °F 30.04 in Calm   -999.0 mph 85% 0 in
05:09 17.2 °F 12.7 °F 30.03 in Calm   -999.0 mph 82% 0 in
05:25 16.9 °F 12.4 °F 30.04 in South 2.2 mph -999.0 mph 82% 0 in
05:40 17.1 °F 11.7 °F 30.05 in South 2.7 mph -999.0 mph 79% 0 in
05:55 17.8 °F 9.4 °F 30.05 in Calm   -999.0 mph 69% 0 in
06:10 17.1 °F 11.1 °F 30.04 in South 1.7 mph -999.0 mph 77% 0 in
06:26 16.5 °F 11.4 °F 30.04 in SSE 1.7 mph -999.0 mph 80% 0 in
06:41 16.9 °F 12.6 °F 30.05 in South 2.7 mph -999.0 mph 83% 0 in
06:56 17.1 °F 12.6 °F 30.06 in SSE 1.7 mph -999.0 mph 82% 0 in
07:11 17.2 °F 12.9 °F 30.06 in Calm   -999.0 mph 83% 0 in
07:26 18.0 °F 13.7 °F 30.07 in Calm   -999.0 mph 83% 0 in
07:42 19.6 °F 14.7 °F 30.08 in Calm   -999.0 mph 81% 0 in
07:57 20.7 °F 12.5 °F 30.08 in Calm   -999.0 mph 70% 0 in
08:12 21.9 °F 10.1 °F 30.09 in Calm   -999.0 mph 60% 0 in
08:27 23.2 °F 10.6 °F 30.09 in Calm   -999.0 mph 58% 0 in
08:42 24.6 °F 13.8 °F 30.10 in Calm   -999.0 mph 63% 0 in
08:58 25.2 °F 11.7 °F 30.09 in Calm   -999.0 mph 56% 0 in
09:13 27.0 °F 12.1 °F 30.10 in Calm   -999.0 mph 53% 0 in
09:28 27.9 °F 12.5 °F 30.10 in Calm   -999.0 mph 52% 0 in
09:43 30.9 °F 14.9 °F 30.10 in NW 3.7 mph -999.0 mph 51% 0 in
09:59 34.3 °F 16.6 °F 30.11 in Calm   -999.0 mph 48% 0 in
10:14 36.7 °F 19.3 °F 30.10 in Calm   -999.0 mph 49% 0 in
10:29 39.2 °F 16.9 °F 30.11 in NNW 2.7 mph -999.0 mph 40% 0 in
10:45 39.6 °F 19.5 °F 30.12 in NW 2.7 mph -999.0 mph 44% 0 in
11:00 40.5 °F 18.1 °F 30.12 in South 1.7 mph -999.0 mph 40% 0 in
11:15 40.5 °F 20.3 °F 30.12 in NNW 3.2 mph -999.0 mph 44% 0 in
11:31 41.5 °F 21.7 °F 30.12 in NW 1.7 mph -999.0 mph 45% 0 in
11:46 43.3 °F 20.6 °F 30.11 in Calm   -999.0 mph 40% 0 in
12:01 43.0 °F 25.6 °F 30.11 in NW 2.7 mph -999.0 mph 50% 0 in
12:16 44.2 °F 23.7 °F 30.12 in NW 2.2 mph -999.0 mph 44% 0 in
12:32 44.8 °F 20.1 °F 30.11 in WSW 1.1 mph -999.0 mph 37% 0 in
12:47 45.1 °F 18.4 °F 30.11 in WNW 2.7 mph -999.0 mph 34% 0 in
13:02 44.6 °F 18.6 °F 30.11 in NW 3.7 mph -999.0 mph 35% 0 in
13:17 44.4 °F 9.8 °F 30.11 in North 1.7 mph -999.0 mph 24% 0 in
13:33 43.9 °F 14.4 °F 30.12 in NNW 3.7 mph -999.0 mph 30% 0 in
13:48 43.3 °F 11.5 °F 30.12 in NNW 4.2 mph -999.0 mph 27% 0 in
14:03 44.6 °F 12.6 °F 30.11 in NW 6.8 mph -999.0 mph 27% 0 in
14:19 43.2 °F 5.8 °F 30.12 in West 1.7 mph -999.0 mph 21% 0 in
14:34 42.3 °F 8.9 °F 30.12 in West 1.7 mph -999.0 mph 25% 0 in
14:49 42.6 °F 8.3 °F 30.12 in NE 3.7 mph -999.0 mph 24% 0 in
15:05 42.1 °F 9.6 °F 30.12 in NNW 3.2 mph -999.0 mph 26% 0 in
15:20 42.3 °F 8.9 °F 30.12 in ENE 2.2 mph -999.0 mph 25% 0 in
15:35 42.3 °F 12.3 °F 30.12 in West 2.2 mph -999.0 mph 29% 0 in
15:50 41.5 °F 10.0 °F 30.12 in NW 2.7 mph -999.0 mph 27% 0 in
16:06 40.8 °F 13.2 °F 30.12 in NW 3.2 mph -999.0 mph 32% 0 in
16:21 40.8 °F 13.9 °F 30.12 in NNW 4.2 mph -999.0 mph 33% 0 in
16:36 40.3 °F 15.4 °F 30.12 in NNW 3.2 mph -999.0 mph 36% 0 in
16:52 39.7 °F 13.6 °F 30.12 in NW 2.7 mph -999.0 mph 34% 0 in
17:07 39.2 °F 16.9 °F 30.13 in NW 2.2 mph -999.0 mph 40% 0 in
17:22 39.2 °F 17.5 °F 30.13 in NNE 4.7 mph -999.0 mph 41% 0 in
17:38 39.2 °F 18.0 °F 30.13 in NNE 3.7 mph -999.0 mph 42% 0 in
17:53 38.8 °F 18.7 °F 30.13 in WNW 5.8 mph -999.0 mph 44% 0 in
18:08 39.0 °F 21.0 °F 30.13 in North 4.2 mph -999.0 mph 48% 0 in
18:24 38.8 °F 19.8 °F 30.14 in NNW 4.2 mph -999.0 mph 46% 0 in
18:39 39.0 °F 20.0 °F 30.14 in NNW 5.8 mph -999.0 mph 46% 0 in
18:54 39.2 °F 21.1 °F 30.14 in North 4.7 mph -999.0 mph 48% 0 in
19:09 38.8 °F 22.7 °F 30.15 in East 1.7 mph -999.0 mph 52% 0 in
19:24 36.1 °F 20.2 °F 30.16 in SE 2.2 mph -999.0 mph 52% 0 in
19:40 33.8 °F 20.2 °F 30.16 in South 2.7 mph -999.0 mph 57% 0 in
19:55 32.7 °F 19.9 °F 30.16 in South 2.7 mph -999.0 mph 59% 0 in
20:10 32.0 °F 21.6 °F 30.16 in SSE 1.7 mph -999.0 mph 65% 0 in
20:26 32.0 °F 20.4 °F 30.16 in SSE 1.7 mph -999.0 mph 62% 0 in
20:42 31.1 °F 21.1 °F 30.17 in Calm   -999.0 mph 66% 0 in
20:57 30.7 °F 22.1 °F 30.18 in SSE 1.7 mph -999.0 mph 70% 0 in
21:12 30.0 °F 22.4 °F 30.18 in SW 1.7 mph -999.0 mph 73% 0 in
21:27 30.2 °F 21.6 °F 30.19 in SSW 2.7 mph -999.0 mph 70% 0 in
21:42 29.7 °F 22.7 °F 30.19 in Calm   -999.0 mph 75% 0 in
21:58 29.7 °F 22.1 °F 30.19 in South 2.7 mph -999.0 mph 73% 0 in
22:13 29.1 °F 21.2 °F 30.19 in South 2.7 mph -999.0 mph 72% 0 in
22:28 28.6 °F 20.7 °F 30.19 in South 1.7 mph -999.0 mph 72% 0 in
22:43 28.6 °F 22.3 °F 30.19 in Calm   -999.0 mph 77% 0 in
22:58 28.8 °F 21.2 °F 30.19 in Calm   -999.0 mph 73% 0 in
23:14 28.8 °F 19.9 °F 30.19 in Calm   -999.0 mph 69% 0 in
23:29 28.4 °F 21.2 °F 30.19 in Calm   -999.0 mph 74% 0 in
23:44 28.0 °F 20.5 °F 30.19 in Calm   -999.0 mph 73% 0 in
23:59 28.8 °F 20.6 °F 30.19 in South 3.2 mph -999.0 mph 71% 0 in
Big Bear CA Weather